createdAt,value
2023-04-26T00:02:06.179Z,77.96
2023-04-26T00:05:10.107Z,78.13
2023-04-26T00:08:13.369Z,78.18
2023-04-26T00:11:16.173Z,78.61
2023-04-26T00:14:19.508Z,78.46
2023-04-26T00:17:24.027Z,78.53
2023-04-26T00:20:29.144Z,78.71
2023-04-26T00:23:32.249Z,78.45
2023-04-26T00:26:37.483Z,78.64
2023-04-26T00:29:41.373Z,78.73
2023-04-26T00:32:44.180Z,78.61
2023-04-26T00:35:46.937Z,78.51
2023-04-26T00:38:49.677Z,78.21
2023-04-26T00:41:53.405Z,77.94
2023-04-26T00:44:57.727Z,78.30
2023-04-26T00:48:02.465Z,78.09
2023-04-26T00:51:06.583Z,78.06
2023-04-26T00:54:10.235Z,78.13
2023-04-26T00:57:12.879Z,77.98
2023-04-26T01:00:28.974Z,78.36
2023-04-26T01:03:31.646Z,78.39
2023-04-26T01:06:38.592Z,79.07
2023-04-26T01:09:44.193Z,79.05
2023-04-26T01:12:48.002Z,78.86
2023-04-26T01:15:54.891Z,79.11
2023-04-26T01:18:58.125Z,78.94
2023-04-26T01:22:01.028Z,79.01
2023-04-26T01:25:09.102Z,79.34
2023-04-26T01:28:11.981Z,79.57
2023-04-26T01:31:14.743Z,79.51
2023-04-26T01:34:17.670Z,79.63
2023-04-26T01:37:21.902Z,79.38
2023-04-26T01:40:26.856Z,79.42
2023-04-26T01:43:30.868Z,79.42
2023-04-26T01:46:38.361Z,79.44
2023-04-26T01:49:41.906Z,79.30
2023-04-26T01:52:45.754Z,79.23
2023-04-26T01:55:49.236Z,79.05
2023-04-26T01:58:52.245Z,78.65
2023-04-26T02:01:56.484Z,78.20
2023-04-26T02:04:59.648Z,77.86
2023-04-26T02:08:03.343Z,77.58
2023-04-26T02:11:07.368Z,77.25
2023-04-26T02:14:12.024Z,77.18
2023-04-26T02:17:15.016Z,77.22
2023-04-26T02:20:18.006Z,76.96
2023-04-26T02:23:22.038Z,76.74
2023-04-26T02:26:27.003Z,76.69
2023-04-26T02:32:39.458Z,76.95
2023-04-26T02:35:42.312Z,77.08
2023-04-26T02:38:46.553Z,77.05
2023-04-26T02:41:50.090Z,76.99
2023-04-26T02:44:52.612Z,76.79
2023-04-26T02:47:55.757Z,76.82
2023-04-26T02:50:59.906Z,76.71
2023-04-26T02:54:04.626Z,76.72
2023-04-26T02:57:10.384Z,77.01
2023-04-26T03:00:14.346Z,77.45
2023-04-26T03:03:17.302Z,77.67
2023-04-26T03:06:22.345Z,78.49
2023-04-26T03:09:25.053Z,78.27
2023-04-26T03:12:29.247Z,78.32
2023-04-26T03:15:32.006Z,78.25
2023-04-26T03:18:36.658Z,78.56
2023-04-26T03:21:43.313Z,78.65
2023-04-26T03:24:47.954Z,78.52
2023-04-26T03:27:51.128Z,78.25
2023-04-26T03:30:57.322Z,78.18
2023-04-26T03:34:02.455Z,78.00
2023-04-26T03:37:05.391Z,77.92
2023-04-26T03:40:11.039Z,78.12
2023-04-26T03:43:14.538Z,78.08
2023-04-26T03:46:17.350Z,77.91
2023-04-26T03:49:22.104Z,77.97
2023-04-26T03:52:25.412Z,77.61
2023-04-26T03:55:28.838Z,77.50
2023-04-26T03:58:32.388Z,77.39
2023-04-26T04:01:36.723Z,77.15
2023-04-26T04:04:44.109Z,76.97
2023-04-26T04:07:49.248Z,76.73
2023-04-26T04:10:53.206Z,76.61
2023-04-26T04:13:58.677Z,76.49
2023-04-26T04:17:08.629Z,76.58
2023-04-26T04:20:17.945Z,76.36
2023-04-26T04:23:27.656Z,76.44
2023-04-26T04:26:30.604Z,76.17
2023-04-26T04:29:36.490Z,76.33
2023-04-26T04:32:45.219Z,76.53
2023-04-26T04:35:48.387Z,76.43
2023-04-26T04:38:56.304Z,76.26
2023-04-26T04:42:07.036Z,75.85
2023-04-26T04:45:10.842Z,75.61
2023-04-26T04:48:15.961Z,75.29
2023-04-26T04:51:19.228Z,74.95
2023-04-26T04:54:23.589Z,74.59
2023-04-26T04:57:27.693Z,73.99
2023-04-26T05:00:32.286Z,73.66
2023-04-26T05:03:36.735Z,73.62
2023-04-26T05:06:39.971Z,73.01
2023-04-26T05:09:46.281Z,72.27
2023-04-26T05:12:50.002Z,72.19
2023-04-26T05:15:54.289Z,71.24
2023-04-26T05:18:58.523Z,70.46
2023-04-26T05:22:01.692Z,70.04
2023-04-26T05:25:08.564Z,69.54
2023-04-26T05:28:14.024Z,68.60
2023-04-26T05:31:17.868Z,68.19
2023-04-26T05:34:23.066Z,67.80
2023-04-26T05:37:27.073Z,67.13
2023-04-26T05:40:32.489Z,66.37
2023-04-26T05:43:36.080Z,65.31
2023-04-26T05:46:39.542Z,63.08
2023-04-26T05:49:44.418Z,60.87
2023-04-26T05:52:47.752Z,57.73
2023-04-26T05:55:59.284Z,55.39
2023-04-26T05:59:03.037Z,50.90
2023-04-26T06:02:11.715Z,52.45
2023-04-26T06:05:23.359Z,47.54
2023-04-26T06:08:28.526Z,47.84
2023-04-26T06:11:35.583Z,45.14
2023-04-26T06:14:38.422Z,43.82
2023-04-26T06:17:42.257Z,43.83
2023-04-26T06:20:47.398Z,43.29
2023-04-26T06:23:53.238Z,43.55
2023-04-26T06:26:58.588Z,43.56
2023-04-26T06:30:02.353Z,40.12
2023-04-26T06:33:07.214Z,41.20
2023-04-26T06:36:13.401Z,39.39
2023-04-26T06:39:17.987Z,38.91
2023-04-26T06:42:22.494Z,39.29
2023-04-26T06:45:26.113Z,37.19
2023-04-26T06:48:34.056Z,36.97
2023-04-26T06:51:39.372Z,35.87
2023-04-26T06:54:53.567Z,36.65
2023-04-26T06:58:06.186Z,36.76
2023-04-26T07:01:11.359Z,36.00
2023-04-26T07:04:15.478Z,36.11
2023-04-26T07:07:18.567Z,35.36
2023-04-26T07:10:22.985Z,35.32
2023-04-26T07:13:26.147Z,35.69
2023-04-26T07:16:30.070Z,35.16
2023-04-26T07:19:34.489Z,34.87
2023-04-26T07:22:39.124Z,37.37
2023-04-26T07:25:42.052Z,36.44
2023-04-26T07:28:47.192Z,35.60
2023-04-26T07:31:52.012Z,35.42
2023-04-26T07:34:57.404Z,34.79
2023-04-26T07:38:01.473Z,35.41
2023-04-26T07:41:05.526Z,35.69
2023-04-26T07:44:11.552Z,36.60
2023-04-26T07:47:18.225Z,37.02
2023-04-26T07:50:21.722Z,37.50
2023-04-26T07:53:24.209Z,36.76
2023-04-26T07:56:36.124Z,36.36
2023-04-26T07:59:39.080Z,33.63
2023-04-26T08:02:45.445Z,34.61
2023-04-26T08:05:49.413Z,33.77
2023-04-26T08:08:53.933Z,33.79
2023-04-26T08:12:00.501Z,34.39
2023-04-26T08:15:06.124Z,34.51
2023-04-26T08:18:10.147Z,33.17
2023-04-26T08:21:14.907Z,33.54
2023-04-26T08:24:17.930Z,32.04
2023-04-26T08:27:22.992Z,32.32
2023-04-26T08:30:26.668Z,32.90
2023-04-26T08:33:29.198Z,32.88
2023-04-26T08:36:37.436Z,33.37
2023-04-26T08:39:40.381Z,32.88
2023-04-26T08:42:44.509Z,34.11
2023-04-26T08:45:49.145Z,35.18
2023-04-26T08:49:11.027Z,33.52
2023-04-26T08:52:16.977Z,31.90
2023-04-26T08:55:23.131Z,32.92
2023-04-26T08:58:27.149Z,33.13
2023-04-26T09:01:32.410Z,32.48
2023-04-26T09:04:36.397Z,32.81
2023-04-26T09:07:46.990Z,32.44
2023-04-26T09:10:50.012Z,32.55
2023-04-26T09:13:53.165Z,33.02
2023-04-26T09:16:56.979Z,32.52
2023-04-26T09:20:01.452Z,31.46
2023-04-26T09:23:12.936Z,31.58
2023-04-26T09:26:22.546Z,31.11
2023-04-26T09:29:25.575Z,31.56
2023-04-26T09:32:59.038Z,31.58
2023-04-26T09:36:21.646Z,31.88
2023-04-26T09:39:37.461Z,30.60
2023-04-26T09:42:42.234Z,31.78
2023-04-26T09:45:50.602Z,31.35
2023-04-26T09:49:03.779Z,31.06
2023-04-26T09:52:13.978Z,31.16
2023-04-26T09:55:35.437Z,30.28
2023-04-26T09:58:53.566Z,30.54
2023-04-26T10:01:56.672Z,29.67
2023-04-26T10:05:02.217Z,30.41
2023-04-26T10:08:12.055Z,28.91
2023-04-26T10:11:22.058Z,29.72
2023-04-26T10:14:32.326Z,29.01
2023-04-26T10:17:35.252Z,29.00
2023-04-26T10:20:45.005Z,30.27
2023-04-26T10:23:50.246Z,31.06
2023-04-26T10:26:56.868Z,31.16
2023-04-26T10:30:01.109Z,32.02
2023-04-26T10:33:14.177Z,30.29
2023-04-26T10:36:21.227Z,29.55
2023-04-26T10:39:25.994Z,31.24
2023-04-26T10:42:31.016Z,31.88
2023-04-26T10:45:35.051Z,31.66
2023-04-26T10:48:39.547Z,31.18
2023-04-26T10:52:10.256Z,31.30
2023-04-26T10:55:41.090Z,31.75
2023-04-26T10:58:46.766Z,33.88
2023-04-26T11:01:54.066Z,32.27
2023-04-26T11:05:04.217Z,31.84
2023-04-26T11:08:18.639Z,32.63
2023-04-26T11:11:27.223Z,30.03
2023-04-26T11:14:33.079Z,30.11
2023-04-26T11:17:42.326Z,30.47
2023-04-26T11:20:47.543Z,30.62
2023-04-26T11:23:54.715Z,31.87
2023-04-26T11:26:59.951Z,31.99
2023-04-26T11:30:10.049Z,31.95
2023-04-26T11:33:24.051Z,29.75
2023-04-26T11:36:28.482Z,28.95
2023-04-26T11:39:36.307Z,29.02
2023-04-26T11:42:42.315Z,29.93
2023-04-26T11:45:47.387Z,32.12
2023-04-26T11:48:52.085Z,32.48
2023-04-26T11:51:58.241Z,33.43
2023-04-26T11:55:07.732Z,33.84
2023-04-26T11:58:13.968Z,33.68
2023-04-26T12:01:28.637Z,33.06
2023-04-26T12:04:33.120Z,32.30
2023-04-26T12:07:41.074Z,31.80
2023-04-26T12:10:47.548Z,32.16
2023-04-26T12:13:52.163Z,32.96
2023-04-26T12:16:55.710Z,33.71
2023-04-26T12:20:00.199Z,33.15
2023-04-26T12:23:20.057Z,33.69
2023-04-26T12:26:42.000Z,33.23
2023-04-26T12:29:47.035Z,33.00
2023-04-26T12:32:50.321Z,32.73
2023-04-26T12:36:01.028Z,31.85
2023-04-26T12:39:07.068Z,30.18
2023-04-26T12:42:13.512Z,30.25
2023-04-26T12:45:31.032Z,30.24
2023-04-26T12:48:34.995Z,29.97
2023-04-26T12:51:41.055Z,30.70
2023-04-26T12:54:51.032Z,31.63
2023-04-26T12:58:00.088Z,31.95
2023-04-26T13:01:05.454Z,33.43
2023-04-26T13:04:11.739Z,33.47
2023-04-26T13:07:23.321Z,33.33
2023-04-26T13:10:30.052Z,33.82
2023-04-26T13:13:43.062Z,33.52
2023-04-26T13:16:50.185Z,34.22
2023-04-26T13:20:03.017Z,34.25
2023-04-26T13:23:10.644Z,34.69
2023-04-26T13:26:18.038Z,35.01
2023-04-26T13:29:23.109Z,34.84
2023-04-26T13:32:27.076Z,33.59
2023-04-26T13:35:30.852Z,32.95
2023-04-26T13:38:35.138Z,32.54
2023-04-26T13:41:38.971Z,32.38
2023-04-26T13:44:45.300Z,33.44
2023-04-26T13:47:52.131Z,33.88
2023-04-26T13:50:56.462Z,34.49
2023-04-26T13:54:00.742Z,35.38
2023-04-26T13:57:06.984Z,35.85
2023-04-26T14:00:12.249Z,35.21
2023-04-26T14:03:17.107Z,35.51
2023-04-26T14:06:24.045Z,34.94
2023-04-26T14:09:28.192Z,34.12
2023-04-26T14:12:32.541Z,33.96
2023-04-26T14:15:37.150Z,34.25
2023-04-26T14:18:45.169Z,32.62
2023-04-26T14:21:52.036Z,32.68
2023-04-26T14:24:59.290Z,31.86
2023-04-26T14:28:04.281Z,31.54
2023-04-26T14:31:18.078Z,32.03
2023-04-26T14:34:34.987Z,33.15
2023-04-26T14:37:41.691Z,32.88
2023-04-26T14:40:45.674Z,33.33
2023-04-26T14:43:53.828Z,32.60
2023-04-26T14:47:04.634Z,33.29
2023-04-26T14:50:11.313Z,33.31
2023-04-26T14:53:22.077Z,32.68
2023-04-26T14:56:26.388Z,33.57
2023-04-26T14:59:34.051Z,34.00
2023-04-26T15:02:51.775Z,34.15
2023-04-26T15:06:01.187Z,34.66
2023-04-26T15:09:14.980Z,36.02
2023-04-26T15:12:28.090Z,35.55
2023-04-26T15:15:39.082Z,34.96
2023-04-26T15:18:45.818Z,34.54
2023-04-26T15:22:02.515Z,33.95
2023-04-26T15:25:06.953Z,33.97
2023-04-26T15:28:11.669Z,33.00
2023-04-26T15:31:15.435Z,33.47
2023-04-26T15:34:27.262Z,32.50
2023-04-26T15:37:35.042Z,33.50
2023-04-26T15:40:44.001Z,32.79
2023-04-26T15:44:05.894Z,32.52
2023-04-26T15:47:12.292Z,33.20
2023-04-26T15:50:17.664Z,33.70
2023-04-26T15:53:21.926Z,33.10
2023-04-26T15:56:28.079Z,32.44
2023-04-26T15:59:39.959Z,31.99
2023-04-26T16:02:52.179Z,33.14
2023-04-26T16:06:01.022Z,34.17
2023-04-26T16:09:17.099Z,34.77
2023-04-26T16:12:38.079Z,35.37
2023-04-26T16:15:44.117Z,35.40
2023-04-26T16:18:50.383Z,35.60
2023-04-26T16:21:54.022Z,35.75
2023-04-26T16:25:12.420Z,36.00
2023-04-26T16:28:18.627Z,35.66
2023-04-26T16:31:24.477Z,35.74
2023-04-26T16:34:40.111Z,35.92
2023-04-26T16:37:49.024Z,35.96
2023-04-26T16:40:59.167Z,35.94
2023-04-26T16:44:11.094Z,35.94
2023-04-26T16:47:18.020Z,36.07
2023-04-26T16:50:26.101Z,36.71
2023-04-26T16:53:40.339Z,36.00
2023-04-26T16:56:44.596Z,35.50
2023-04-26T16:59:51.772Z,35.86
2023-04-26T17:03:02.206Z,36.32
2023-04-26T17:06:11.900Z,36.68
2023-04-26T17:09:19.076Z,37.12
2023-04-26T17:12:29.028Z,37.34
2023-04-26T17:15:36.912Z,37.45
2023-04-26T17:18:47.044Z,37.94
2023-04-26T17:22:03.119Z,38.09
2023-04-26T17:25:09.045Z,37.83
2023-04-26T17:28:16.469Z,38.06
2023-04-26T17:31:22.106Z,38.28
2023-04-26T17:34:27.983Z,38.22
2023-04-26T17:37:32.381Z,38.36
2023-04-26T17:40:45.154Z,38.68
2023-04-26T17:43:58.054Z,39.76
2023-04-26T17:47:08.435Z,39.61
2023-04-26T17:50:18.928Z,39.85
2023-04-26T17:53:29.577Z,40.16
2023-04-26T17:56:35.025Z,40.52
2023-04-26T17:59:42.036Z,40.48
2023-04-26T18:02:48.680Z,41.11
2023-04-26T18:05:54.513Z,41.02
2023-04-26T18:09:12.183Z,41.37
2023-04-26T18:12:15.848Z,41.49
2023-04-26T18:15:23.010Z,41.51
2023-04-26T18:18:28.007Z,41.74
2023-04-26T18:21:45.117Z,41.93
2023-04-26T18:24:57.275Z,42.38
2023-04-26T18:28:01.391Z,42.24
2023-04-26T18:31:09.081Z,42.40
2023-04-26T18:34:18.063Z,42.94
2023-04-26T18:37:28.170Z,42.63
2023-04-26T18:40:35.889Z,42.84
2023-04-26T18:43:42.016Z,42.97
2023-04-26T18:46:53.149Z,42.71
2023-04-26T18:50:07.084Z,43.14
2023-04-26T18:53:24.221Z,45.04
2023-04-26T18:56:31.194Z,45.41
2023-04-26T18:59:49.035Z,44.91
2023-04-26T19:02:54.940Z,45.59
2023-04-26T19:06:09.955Z,45.89
2023-04-26T19:09:15.380Z,45.67
2023-04-26T19:12:20.561Z,45.99
2023-04-26T19:15:26.085Z,45.98
2023-04-26T19:18:34.214Z,45.83
2023-04-26T19:21:48.913Z,46.13
2023-04-26T19:24:57.304Z,46.80
2023-04-26T19:28:05.345Z,47.31
2023-04-26T19:31:11.183Z,48.26
2023-04-26T19:34:15.404Z,49.41
2023-04-26T19:37:21.115Z,50.16
2023-04-26T19:40:37.973Z,51.23
2023-04-26T19:43:57.380Z,50.30
2023-04-26T19:47:03.531Z,49.93
2023-04-26T19:50:12.224Z,50.09
2023-04-26T19:53:19.316Z,50.78
2023-04-26T19:56:23.292Z,51.10
2023-04-26T19:59:27.529Z,51.43
2023-04-26T20:02:32.291Z,51.72
2023-04-26T20:05:38.366Z,51.79
2023-04-26T20:08:43.080Z,52.38
2023-04-26T20:12:00.056Z,52.42
2023-04-26T20:15:07.015Z,52.85
2023-04-26T20:18:12.057Z,52.53
2023-04-26T20:21:21.417Z,52.31
2023-04-26T20:24:29.579Z,51.49
2023-04-26T20:27:35.039Z,51.70
2023-04-26T20:30:43.056Z,52.13
2023-04-26T20:33:47.066Z,53.17
2023-04-26T20:36:54.390Z,53.09
2023-04-26T20:39:59.687Z,53.79
2023-04-26T20:43:09.500Z,54.60
2023-04-26T20:46:16.369Z,54.95
2023-04-26T20:49:21.831Z,54.99
2023-04-26T20:52:30.429Z,55.02
2023-04-26T20:55:34.242Z,55.51
2023-04-26T20:58:37.698Z,55.13
2023-04-26T21:01:42.334Z,55.81
2023-04-26T21:04:52.185Z,57.46
2023-04-26T21:07:56.660Z,57.79
2023-04-26T21:11:02.061Z,57.19
2023-04-26T21:14:06.805Z,58.06
2023-04-26T21:17:09.694Z,58.29
2023-04-26T21:20:13.727Z,58.23
2023-04-26T21:23:16.724Z,57.88
2023-04-26T21:26:21.573Z,58.54
2023-04-26T21:29:24.406Z,58.68
2023-04-26T21:32:28.125Z,58.75
2023-04-26T21:35:31.508Z,59.11
2023-04-26T21:38:35.677Z,59.19
2023-04-26T21:41:39.272Z,58.65
2023-04-26T21:44:42.567Z,58.61
2023-04-26T21:47:45.556Z,59.38
2023-04-26T21:50:50.953Z,59.57
2023-04-26T21:53:55.484Z,59.93
2023-04-26T21:56:58.272Z,60.56
2023-04-26T22:00:01.226Z,60.36
2023-04-26T22:03:04.628Z,60.72
2023-04-26T22:06:09.549Z,61.05
2023-04-26T22:09:13.576Z,61.01
2023-04-26T22:12:16.991Z,62.43
2023-04-26T22:15:20.643Z,62.04
2023-04-26T22:18:26.048Z,61.42
2023-04-26T22:21:29.998Z,63.96
2023-04-26T22:24:34.270Z,62.84
2023-04-26T22:27:37.368Z,62.49
2023-04-26T22:30:41.026Z,63.71
2023-04-26T22:33:56.971Z,62.13
2023-04-26T22:37:13.036Z,63.16
2023-04-26T22:40:20.951Z,62.65
2023-04-26T22:43:23.974Z,63.50
2023-04-26T22:46:26.508Z,62.74
2023-04-26T22:49:30.992Z,62.27
2023-04-26T22:52:34.731Z,62.07
2023-04-26T22:55:37.651Z,61.73
2023-04-26T22:58:40.232Z,61.88
2023-04-26T23:01:44.336Z,62.25
2023-04-26T23:04:47.212Z,61.95
2023-04-26T23:07:50.460Z,62.26
2023-04-26T23:10:53.416Z,63.13
2023-04-26T23:13:56.755Z,62.63
2023-04-26T23:16:59.308Z,63.97
2023-04-26T23:20:11.786Z,64.61
2023-04-26T23:23:14.615Z,66.64
2023-04-26T23:26:17.650Z,65.66
2023-04-26T23:29:21.049Z,64.43
2023-04-26T23:32:24.099Z,63.62
2023-04-26T23:35:27.075Z,64.57
2023-04-26T23:38:29.968Z,65.43
2023-04-26T23:41:33.245Z,64.14
2023-04-26T23:44:36.298Z,65.53
2023-04-26T23:47:39.067Z,65.75
2023-04-26T23:50:42.332Z,65.69
2023-04-26T23:53:45.597Z,66.02
2023-04-26T23:56:55.203Z,65.75
2023-04-26T23:59:58.382Z,67.34
